createdAt,value
2019-03-06T00:01:28.105Z,8.70
2019-03-06T00:03:55.778Z,8.70
2019-03-06T00:06:23.512Z,8.70
2019-03-06T00:08:51.317Z,8.60
2019-03-06T00:11:19.091Z,8.60
2019-03-06T00:13:46.753Z,8.60
2019-03-06T00:16:14.489Z,8.60
2019-03-06T00:18:42.217Z,8.60
2019-03-06T00:21:09.837Z,8.60
2019-03-06T00:23:38.018Z,8.50
2019-03-06T00:26:06.203Z,8.50
2019-03-06T00:28:34.029Z,8.50
2019-03-06T00:31:01.689Z,8.50
2019-03-06T00:33:29.344Z,8.50
2019-03-06T00:35:57.820Z,8.50
2019-03-06T00:38:25.555Z,8.50
2019-03-06T00:40:59.998Z,8.50
2019-03-06T00:43:28.440Z,8.50
2019-03-06T00:45:56.331Z,8.40
2019-03-06T00:48:24.243Z,8.50
2019-03-06T00:50:51.998Z,8.40
2019-03-06T00:53:19.812Z,8.40
2019-03-06T00:55:47.453Z,8.40
2019-03-06T00:58:15.166Z,8.40
2019-03-06T01:00:43.996Z,8.30
2019-03-06T01:03:11.845Z,8.30
2019-03-06T01:05:39.553Z,8.30
2019-03-06T01:08:07.221Z,8.20
2019-03-06T01:10:35.085Z,8.20
2019-03-06T01:13:02.740Z,8.20
2019-03-06T01:15:30.396Z,8.10
2019-03-06T01:17:59.163Z,8.00
2019-03-06T01:20:26.802Z,8.00
2019-03-06T01:22:54.722Z,8.00
2019-03-06T01:25:22.477Z,8.00
2019-03-06T01:27:51.246Z,8.00
2019-03-06T01:30:18.901Z,8.00
2019-03-06T01:32:48.465Z,8.00
2019-03-06T01:35:40.143Z,8.00
2019-03-06T01:38:45.489Z,8.00
2019-03-06T01:41:28.129Z,8.00
2019-03-06T01:44:15.313Z,7.90
2019-03-06T01:46:43.019Z,7.90
2019-03-06T01:49:10.720Z,7.90
2019-03-06T01:51:38.775Z,7.90
2019-03-06T01:54:07.652Z,7.90
2019-03-06T01:56:35.298Z,7.80
2019-03-06T01:59:03.366Z,7.80
2019-03-06T02:01:30.995Z,7.80
2019-03-06T02:03:58.658Z,7.80
2019-03-06T02:06:28.733Z,7.70
2019-03-06T02:08:56.379Z,7.70
2019-03-06T02:11:24.136Z,7.70
2019-03-06T02:13:51.785Z,7.70
2019-03-06T02:16:19.549Z,7.70
2019-03-06T02:18:47.297Z,7.70
2019-03-06T02:21:14.971Z,7.70
2019-03-06T02:23:42.793Z,7.70
2019-03-06T02:26:10.456Z,7.70
2019-03-06T02:28:38.241Z,7.60
2019-03-06T02:31:06.406Z,7.50
2019-03-06T02:33:34.201Z,7.50
2019-03-06T02:36:01.834Z,7.40
2019-03-06T02:38:29.605Z,7.30
2019-03-06T02:40:57.243Z,7.30
2019-03-06T02:43:24.883Z,7.30
2019-03-06T02:45:53.013Z,7.30
2019-03-06T02:48:20.671Z,7.30
2019-03-06T02:50:48.539Z,7.30
2019-03-06T02:53:16.182Z,7.50
2019-03-06T02:55:43.843Z,7.60
2019-03-06T02:58:18.134Z,7.60
2019-03-06T03:00:59.441Z,7.50
2019-03-06T03:03:45.669Z,7.70
2019-03-06T03:06:19.774Z,7.70
2019-03-06T03:08:47.459Z,7.60
2019-03-06T03:11:15.084Z,7.50
2019-03-06T03:13:42.758Z,7.50
2019-03-06T03:16:10.421Z,7.50
2019-03-06T03:18:38.531Z,7.40
2019-03-06T03:21:06.221Z,7.20
2019-03-06T03:23:33.975Z,6.90
2019-03-06T03:26:01.619Z,6.80
2019-03-06T03:28:29.262Z,6.70
2019-03-06T03:30:56.950Z,6.60
2019-03-06T03:33:26.024Z,6.60
2019-03-06T03:35:53.793Z,6.60
2019-03-06T03:38:21.426Z,6.60
2019-03-06T03:40:49.103Z,6.70
2019-03-06T03:43:17.858Z,6.70
2019-03-06T03:45:48.752Z,6.60
2019-03-06T03:48:16.405Z,6.70
2019-03-06T03:50:44.089Z,6.70
2019-03-06T03:53:11.793Z,6.70
2019-03-06T03:55:39.445Z,6.70
2019-03-06T03:58:07.113Z,6.70
2019-03-06T04:00:35.048Z,6.70
2019-03-06T04:03:02.740Z,6.60
2019-03-06T04:05:30.387Z,6.60
2019-03-06T04:07:59.873Z,6.60
2019-03-06T04:10:27.798Z,6.70
2019-03-06T04:12:55.456Z,6.70
2019-03-06T04:15:23.588Z,6.80
2019-03-06T04:17:51.351Z,6.80
2019-03-06T04:20:20.273Z,6.80
2019-03-06T04:22:48.003Z,7.00
2019-03-06T04:25:15.684Z,6.80
2019-03-06T04:27:43.391Z,6.70
2019-03-06T04:30:11.130Z,6.70
2019-03-06T04:32:38.817Z,6.70
2019-03-06T04:35:06.559Z,6.80
2019-03-06T04:37:34.213Z,6.80
2019-03-06T04:40:01.869Z,6.80
2019-03-06T04:42:30.104Z,6.80
2019-03-06T04:44:57.860Z,6.90
2019-03-06T04:47:25.501Z,7.00
2019-03-06T04:49:53.187Z,7.10
2019-03-06T04:52:21.698Z,7.20
2019-03-06T04:54:49.344Z,7.20
2019-03-06T04:57:17.029Z,7.20
2019-03-06T04:59:44.668Z,7.30
2019-03-06T05:02:12.302Z,7.30
2019-03-06T05:04:40.017Z,7.20
2019-03-06T05:07:07.702Z,7.20
2019-03-06T05:09:35.503Z,7.20
2019-03-06T05:12:03.169Z,7.30
2019-03-06T05:14:30.814Z,7.50
2019-03-06T05:17:19.906Z,7.70
2019-03-06T05:19:47.869Z,7.80
2019-03-06T05:22:15.557Z,7.80
2019-03-06T05:24:43.270Z,7.80
2019-03-06T05:27:11.130Z,7.80
2019-03-06T05:29:38.778Z,7.90
2019-03-06T05:32:29.358Z,7.80
2019-03-06T05:34:58.657Z,7.80
2019-03-06T05:37:49.697Z,7.80
2019-03-06T05:40:17.493Z,7.70
2019-03-06T05:42:46.235Z,7.60
2019-03-06T05:45:15.780Z,7.70
2019-03-06T05:47:43.529Z,7.80
2019-03-06T05:50:11.219Z,7.80
2019-03-06T05:52:38.915Z,7.70
2019-03-06T05:55:06.737Z,7.50
2019-03-06T05:57:34.410Z,7.50
2019-03-06T06:00:02.493Z,7.30
2019-03-06T06:02:30.347Z,7.20
2019-03-06T06:04:58.018Z,7.20
2019-03-06T06:07:25.673Z,7.10
2019-03-06T06:09:53.309Z,7.00
2019-03-06T06:12:20.960Z,7.10
2019-03-06T06:14:48.590Z,7.30
2019-03-06T06:17:16.281Z,7.50
2019-03-06T06:19:43.925Z,7.50
2019-03-06T06:22:25.265Z,7.60
2019-03-06T06:24:52.956Z,7.60
2019-03-06T06:27:20.637Z,7.80
2019-03-06T06:29:48.320Z,8.00
2019-03-06T06:32:15.970Z,8.10
2019-03-06T06:34:43.633Z,8.10
2019-03-06T06:37:11.281Z,8.20
2019-03-06T06:39:38.942Z,8.30
2019-03-06T06:42:06.598Z,8.40
2019-03-06T06:44:34.274Z,8.30
2019-03-06T06:47:01.902Z,8.30
2019-03-06T06:49:29.535Z,8.40
2019-03-06T06:52:45.250Z,8.50
2019-03-06T06:56:10.001Z,8.50
2019-03-06T06:58:58.789Z,8.50
2019-03-06T07:02:20.869Z,8.40
2019-03-06T07:05:33.017Z,8.40
2019-03-06T07:08:20.778Z,8.40
2019-03-06T07:11:13.873Z,8.40
2019-03-06T07:14:07.695Z,8.50
2019-03-06T07:16:58.037Z,8.50
2019-03-06T07:19:36.764Z,8.50
2019-03-06T07:22:23.997Z,8.70
2019-03-06T07:25:09.056Z,8.90
2019-03-06T07:28:05.073Z,9.20
2019-03-06T07:30:54.342Z,9.10
2019-03-06T07:33:41.047Z,9.00
2019-03-06T07:36:28.906Z,9.10
2019-03-06T07:38:59.104Z,9.10
2019-03-06T07:41:52.065Z,9.20
2019-03-06T07:44:54.442Z,9.30
2019-03-06T07:47:40.351Z,9.50
2019-03-06T07:50:49.982Z,9.60
2019-03-06T07:54:08.294Z,9.80
2019-03-06T07:56:39.765Z,9.90
2019-03-06T07:59:07.441Z,10.00
2019-03-06T08:01:38.428Z,10.10
2019-03-06T08:04:10.698Z,10.20
2019-03-06T08:06:39.934Z,10.30
2019-03-06T08:09:09.958Z,10.50
2019-03-06T08:11:49.018Z,10.70
2019-03-06T08:14:35.299Z,10.90
2019-03-06T08:17:12.254Z,11.20
2019-03-06T08:20:05.537Z,11.60
2019-03-06T08:22:47.727Z,11.90
2019-03-06T08:25:22.672Z,12.20
2019-03-06T08:27:50.307Z,12.30
2019-03-06T08:30:19.028Z,12.40
2019-03-06T08:32:46.963Z,12.50
2019-03-06T08:35:14.848Z,12.50
2019-03-06T08:37:42.520Z,12.50
2019-03-06T08:40:10.617Z,12.50
2019-03-06T08:42:39.654Z,12.30
2019-03-06T08:45:07.650Z,12.30
2019-03-06T08:47:55.501Z,12.20
2019-03-06T08:50:52.409Z,12.40
2019-03-06T08:53:42.650Z,12.30
2019-03-06T08:56:44.974Z,12.20
2019-03-06T08:59:28.932Z,12.30
2019-03-06T09:02:18.983Z,12.50
2019-03-06T09:05:04.698Z,12.50
2019-03-06T09:07:54.879Z,12.80
2019-03-06T09:10:29.186Z,12.80
2019-03-06T09:13:09.832Z,12.80
2019-03-06T09:15:58.226Z,13.00
2019-03-06T09:18:45.813Z,13.10
2019-03-06T09:21:24.198Z,13.10
2019-03-06T09:24:07.935Z,13.10
2019-03-06T09:27:07.421Z,13.20
2019-03-06T09:29:54.732Z,13.40
2019-03-06T09:32:40.849Z,13.80
2019-03-06T09:35:26.977Z,14.00
2019-03-06T09:38:29.259Z,14.20
2019-03-06T09:41:22.804Z,14.20
2019-03-06T09:44:22.197Z,14.40
2019-03-06T09:47:15.243Z,14.30
2019-03-06T09:50:02.616Z,14.20
2019-03-06T09:53:02.785Z,14.20
2019-03-06T09:56:08.354Z,14.40
2019-03-06T09:58:55.580Z,14.60
2019-03-06T10:01:55.270Z,14.90
2019-03-06T10:04:34.335Z,15.10
2019-03-06T10:07:27.597Z,15.40
2019-03-06T10:10:13.387Z,15.50
2019-03-06T10:13:06.405Z,15.60
2019-03-06T10:15:59.410Z,15.70
2019-03-06T10:18:42.932Z,15.70
2019-03-06T10:21:10.614Z,15.70
2019-03-06T10:23:38.397Z,15.60
2019-03-06T10:26:06.103Z,15.40
2019-03-06T10:28:36.646Z,15.30
2019-03-06T10:31:04.734Z,15.30
2019-03-06T10:33:33.002Z,15.20
2019-03-06T10:36:01.201Z,15.10
2019-03-06T10:38:29.101Z,15.20
2019-03-06T10:40:57.015Z,15.30
2019-03-06T10:43:24.797Z,15.40
2019-03-06T10:45:52.617Z,15.30
2019-03-06T10:48:20.498Z,15.20
2019-03-06T10:50:48.197Z,15.10
2019-03-06T10:53:15.979Z,15.10
2019-03-06T10:55:45.481Z,15.20
2019-03-06T10:58:13.256Z,15.40
2019-03-06T11:00:49.201Z,15.70
2019-03-06T11:03:16.940Z,15.90
2019-03-06T11:05:44.723Z,16.00
2019-03-06T11:08:13.054Z,16.10
2019-03-06T11:10:40.852Z,16.00
2019-03-06T11:13:10.159Z,15.90
2019-03-06T11:15:39.426Z,15.70
2019-03-06T11:18:07.897Z,15.40
2019-03-06T11:20:35.877Z,15.20
2019-03-06T11:23:05.320Z,15.30
2019-03-06T11:25:34.618Z,15.50
2019-03-06T11:28:03.350Z,15.70
2019-03-06T11:30:41.564Z,15.90
2019-03-06T11:33:10.742Z,15.90
2019-03-06T11:35:39.376Z,15.90
2019-03-06T11:38:07.997Z,16.00
2019-03-06T11:40:36.356Z,16.00
2019-03-06T11:43:05.308Z,16.10
2019-03-06T11:45:33.098Z,16.30
2019-03-06T11:48:02.494Z,16.40
2019-03-06T11:50:30.509Z,16.50
2019-03-06T11:52:59.321Z,16.50
2019-03-06T11:55:27.968Z,16.50
2019-03-06T11:57:55.894Z,16.40
2019-03-06T12:00:29.760Z,16.30
2019-03-06T12:02:57.762Z,16.20
2019-03-06T12:05:25.944Z,16.20
2019-03-06T12:07:54.000Z,16.00
2019-03-06T12:10:22.431Z,15.90
2019-03-06T12:12:50.424Z,16.00
2019-03-06T12:15:18.221Z,16.00
2019-03-06T12:17:46.129Z,16.00
2019-03-06T12:20:15.181Z,16.10
2019-03-06T12:22:45.057Z,16.00
2019-03-06T12:25:13.257Z,15.80
2019-03-06T12:27:41.210Z,15.70
2019-03-06T12:30:10.418Z,15.60
2019-03-06T12:32:38.197Z,15.70
2019-03-06T12:35:06.329Z,15.80
2019-03-06T12:37:35.330Z,15.90
2019-03-06T12:40:11.994Z,16.00
2019-03-06T12:42:34.108Z,16.00
2019-03-06T12:45:02.099Z,16.00
2019-03-06T12:47:30.748Z,16.10
2019-03-06T12:50:05.453Z,16.10
2019-03-06T12:52:28.237Z,16.10
2019-03-06T12:54:56.536Z,16.10
2019-03-06T12:57:24.222Z,16.20
2019-03-06T12:59:52.128Z,16.40
2019-03-06T13:02:19.861Z,16.60
2019-03-06T13:04:48.694Z,16.70
2019-03-06T13:07:18.130Z,16.70
2019-03-06T13:09:46.330Z,16.80
2019-03-06T13:12:14.061Z,16.90
2019-03-06T13:14:41.844Z,17.10
2019-03-06T13:17:09.737Z,17.40
2019-03-06T13:19:39.254Z,17.50
2019-03-06T13:22:11.366Z,17.70
2019-03-06T13:24:36.775Z,17.80
2019-03-06T13:27:04.674Z,18.00
2019-03-06T13:29:32.382Z,18.20
2019-03-06T13:32:00.016Z,18.30
2019-03-06T13:34:31.116Z,18.30
2019-03-06T13:36:59.050Z,18.60
2019-03-06T13:39:26.902Z,18.80
2019-03-06T13:41:55.065Z,19.00
2019-03-06T13:44:22.885Z,19.20
2019-03-06T13:46:50.662Z,19.20
2019-03-06T13:49:18.349Z,19.30
2019-03-06T13:51:46.134Z,19.30
2019-03-06T13:54:13.840Z,19.40
2019-03-06T13:56:42.513Z,19.50
2019-03-06T13:59:10.334Z,19.60
2019-03-06T14:01:38.183Z,19.70
2019-03-06T14:04:05.860Z,19.60
2019-03-06T14:06:33.636Z,19.30
2019-03-06T14:09:04.273Z,19.20
2019-03-06T14:11:33.594Z,19.10
2019-03-06T14:14:01.571Z,19.00
2019-03-06T14:16:29.629Z,19.00
2019-03-06T14:18:57.265Z,18.80
2019-03-06T14:21:24.921Z,18.90
2019-03-06T14:23:52.717Z,18.90
2019-03-06T14:26:20.509Z,18.80
2019-03-06T14:28:48.348Z,18.80
2019-03-06T14:31:16.194Z,18.80
2019-03-06T14:33:43.875Z,18.80
2019-03-06T14:36:11.534Z,19.00
2019-03-06T14:38:39.179Z,19.00
2019-03-06T14:41:06.992Z,19.00
2019-03-06T14:43:34.756Z,19.00
2019-03-06T14:46:02.583Z,19.20
2019-03-06T14:48:30.579Z,19.20
2019-03-06T14:50:58.484Z,19.30
2019-03-06T14:53:27.105Z,19.20
2019-03-06T14:55:54.805Z,19.30
2019-03-06T14:58:22.750Z,19.20
2019-03-06T15:00:50.739Z,19.40
2019-03-06T15:03:19.841Z,19.40
2019-03-06T15:05:47.677Z,19.50
2019-03-06T15:08:17.289Z,19.50
2019-03-06T15:10:47.651Z,19.60
2019-03-06T15:13:15.930Z,19.60
2019-03-06T15:15:44.000Z,19.40
2019-03-06T15:18:12.600Z,19.30
2019-03-06T15:20:41.534Z,19.30
2019-03-06T15:23:09.701Z,19.30
2019-03-06T15:25:37.612Z,19.20
2019-03-06T15:28:05.494Z,19.20
2019-03-06T15:30:33.337Z,19.10
2019-03-06T15:33:01.694Z,19.20
2019-03-06T15:35:29.541Z,19.20
2019-03-06T15:37:57.350Z,19.00
2019-03-06T15:40:26.732Z,18.90
2019-03-06T15:42:54.468Z,18.90
2019-03-06T15:45:23.980Z,18.80
2019-03-06T15:47:51.957Z,18.80
2019-03-06T15:50:19.935Z,18.80
2019-03-06T15:52:47.978Z,18.80
2019-03-06T15:55:18.826Z,18.80
2019-03-06T15:57:46.757Z,18.60
2019-03-06T16:00:18.900Z,18.60
2019-03-06T16:02:46.936Z,18.70
2019-03-06T16:05:15.116Z,18.70
2019-03-06T16:07:42.829Z,18.80
2019-03-06T16:10:10.877Z,18.80
2019-03-06T16:12:38.723Z,18.70
2019-03-06T16:15:06.731Z,18.60
2019-03-06T16:17:34.473Z,18.60
2019-03-06T16:20:04.467Z,18.40
2019-03-06T16:22:32.321Z,18.30
2019-03-06T16:25:00.058Z,18.20
2019-03-06T16:27:28.213Z,18.20
2019-03-06T16:29:55.968Z,18.10
2019-03-06T16:32:23.773Z,18.20
2019-03-06T16:34:51.505Z,18.30
2019-03-06T16:37:19.233Z,18.60
2019-03-06T16:39:47.026Z,18.70
2019-03-06T16:42:14.773Z,18.60
2019-03-06T16:44:42.577Z,18.60
2019-03-06T16:47:10.333Z,18.70
2019-03-06T16:49:38.317Z,18.40
2019-03-06T16:52:06.042Z,18.10
2019-03-06T16:54:33.820Z,17.90
2019-03-06T16:57:01.703Z,17.70
2019-03-06T16:59:29.495Z,17.60
2019-03-06T17:01:57.318Z,17.40
2019-03-06T17:04:26.074Z,17.40
2019-03-06T17:06:53.896Z,17.30
2019-03-06T17:09:21.658Z,17.30
2019-03-06T17:11:49.401Z,17.20
2019-03-06T17:14:18.149Z,17.00
2019-03-06T17:16:45.970Z,17.00
2019-03-06T17:19:13.894Z,16.90
2019-03-06T17:21:41.886Z,16.90
2019-03-06T17:24:09.642Z,16.80
2019-03-06T17:26:37.338Z,16.80
2019-03-06T17:29:12.751Z,16.60
2019-03-06T17:31:41.333Z,16.50
2019-03-06T17:34:09.106Z,16.40
2019-03-06T17:36:36.854Z,16.30
2019-03-06T17:39:06.966Z,16.30
2019-03-06T17:41:36.867Z,16.30
2019-03-06T17:44:04.577Z,16.30
2019-03-06T17:46:32.317Z,16.20
2019-03-06T17:49:02.031Z,16.10
2019-03-06T17:51:31.690Z,16.00
2019-03-06T17:53:59.481Z,15.90
2019-03-06T17:56:27.225Z,16.00
2019-03-06T17:58:55.035Z,15.90
2019-03-06T18:01:22.851Z,15.90
2019-03-06T18:04:08.476Z,15.90
2019-03-06T18:06:36.293Z,15.90
2019-03-06T18:09:05.905Z,15.90
2019-03-06T18:11:35.654Z,15.90
2019-03-06T18:14:04.658Z,15.90
2019-03-06T18:16:32.555Z,15.90
2019-03-06T18:19:00.734Z,16.00
2019-03-06T18:21:28.540Z,16.10
2019-03-06T18:23:57.818Z,16.20
2019-03-06T18:26:25.633Z,16.30
2019-03-06T18:28:54.686Z,16.30
2019-03-06T18:31:22.590Z,16.40
2019-03-06T18:33:50.638Z,16.50
2019-03-06T18:36:18.512Z,16.30
2019-03-06T18:38:46.242Z,16.20
2019-03-06T18:41:14.073Z,16.20
2019-03-06T18:43:41.832Z,16.20
2019-03-06T18:46:09.605Z,16.20
2019-03-06T18:48:37.322Z,16.20
2019-03-06T18:51:07.714Z,16.20
2019-03-06T18:53:35.445Z,16.30
2019-03-06T18:56:03.147Z,16.30
2019-03-06T18:58:31.833Z,16.40
2019-03-06T19:00:59.521Z,16.30
2019-03-06T19:03:27.401Z,16.20
2019-03-06T19:05:57.640Z,16.20
2019-03-06T19:08:31.351Z,16.20
2019-03-06T19:10:55.157Z,16.30
2019-03-06T19:13:22.942Z,16.30
2019-03-06T19:15:50.610Z,16.30
2019-03-06T19:18:18.403Z,16.30
2019-03-06T19:20:46.133Z,16.20
2019-03-06T19:23:14.061Z,16.20
2019-03-06T19:25:41.719Z,16.10
2019-03-06T19:28:09.423Z,16.10
2019-03-06T19:30:37.295Z,16.10
2019-03-06T19:33:05.183Z,16.00
2019-03-06T19:35:32.965Z,15.80
2019-03-06T19:38:00.833Z,15.50
2019-03-06T19:40:28.830Z,15.50
2019-03-06T19:42:56.635Z,15.40
2019-03-06T19:45:24.693Z,15.10
2019-03-06T19:47:53.049Z,15.10
2019-03-06T19:50:20.956Z,15.00
2019-03-06T19:52:48.867Z,15.10
2019-03-06T19:55:17.238Z,15.10
2019-03-06T19:57:58.721Z,15.20
2019-03-06T20:00:28.568Z,15.20
2019-03-06T20:02:56.757Z,15.20
2019-03-06T20:05:29.127Z,15.20
2019-03-06T20:07:57.201Z,15.30
2019-03-06T20:10:25.034Z,15.30
2019-03-06T20:12:52.885Z,15.20
2019-03-06T20:15:20.729Z,15.10
2019-03-06T20:17:48.654Z,15.20
2019-03-06T20:20:16.994Z,15.20
2019-03-06T20:22:44.944Z,15.40
2019-03-06T20:25:12.961Z,15.40
2019-03-06T20:27:40.796Z,15.40
2019-03-06T20:30:09.649Z,15.40
2019-03-06T20:32:39.359Z,15.60
2019-03-06T20:35:08.070Z,15.60
2019-03-06T20:37:35.815Z,15.70
2019-03-06T20:40:04.797Z,15.80
2019-03-06T20:42:34.046Z,16.00
2019-03-06T20:45:01.882Z,16.00
2019-03-06T20:47:29.779Z,15.90
2019-03-06T20:49:57.577Z,15.90
2019-03-06T20:52:25.454Z,16.00
2019-03-06T20:54:53.249Z,16.00
2019-03-06T20:57:21.212Z,15.90
2019-03-06T20:59:49.105Z,15.90
2019-03-06T21:02:16.896Z,15.90
2019-03-06T21:04:44.777Z,16.00
2019-03-06T21:07:12.609Z,16.10
2019-03-06T21:09:40.328Z,16.00
2019-03-06T21:12:08.036Z,15.80
2019-03-06T21:14:37.739Z,15.80
2019-03-06T21:17:05.667Z,15.80
2019-03-06T21:19:33.482Z,15.70
2019-03-06T21:22:01.259Z,15.70
2019-03-06T21:24:28.983Z,15.80
2019-03-06T21:26:56.799Z,15.80
2019-03-06T21:29:24.618Z,15.70
2019-03-06T21:31:52.758Z,15.70
2019-03-06T21:34:20.534Z,15.60
2019-03-06T21:36:48.333Z,15.50
2019-03-06T21:39:21.564Z,15.50
2019-03-06T21:41:49.417Z,15.60
2019-03-06T21:44:17.149Z,15.70
2019-03-06T21:46:44.919Z,16.00
2019-03-06T21:49:12.669Z,16.10
2019-03-06T21:51:41.121Z,16.00
2019-03-06T21:54:08.875Z,16.10
2019-03-06T21:56:36.846Z,16.10
2019-03-06T21:59:04.598Z,16.40
2019-03-06T22:01:32.499Z,16.40
2019-03-06T22:04:00.330Z,16.50
2019-03-06T22:06:28.078Z,16.40
2019-03-06T22:08:55.878Z,16.20
2019-03-06T22:11:23.513Z,16.10
2019-03-06T22:13:51.706Z,16.10
2019-03-06T22:16:19.372Z,16.00
2019-03-06T22:18:47.105Z,15.90
2019-03-06T22:21:14.874Z,15.70
2019-03-06T22:23:43.118Z,15.60
2019-03-06T22:26:10.820Z,15.50
2019-03-06T22:28:38.610Z,15.40
2019-03-06T22:31:06.437Z,15.40
2019-03-06T22:33:34.242Z,15.30
2019-03-06T22:36:02.038Z,15.30
2019-03-06T22:38:29.845Z,15.10
2019-03-06T22:40:57.556Z,15.00
2019-03-06T22:43:25.308Z,15.00
2019-03-06T22:45:52.976Z,15.00
2019-03-06T22:48:22.531Z,14.90
2019-03-06T22:50:50.217Z,14.90
2019-03-06T22:53:17.897Z,14.80
2019-03-06T22:55:45.598Z,14.70
2019-03-06T22:58:13.357Z,14.60
2019-03-06T23:01:00.890Z,14.60
2019-03-06T23:03:30.807Z,14.60
2019-03-06T23:05:58.573Z,14.50
2019-03-06T23:08:26.413Z,14.50
2019-03-06T23:10:56.077Z,14.50
2019-03-06T23:13:25.151Z,14.40
2019-03-06T23:15:52.812Z,14.40
2019-03-06T23:18:20.529Z,14.30
2019-03-06T23:20:48.262Z,14.10
2019-03-06T23:23:15.958Z,14.00
2019-03-06T23:25:43.662Z,14.00
2019-03-06T23:28:11.814Z,14.00
2019-03-06T23:30:39.669Z,13.80
2019-03-06T23:33:07.531Z,13.60
2019-03-06T23:35:35.277Z,13.60
2019-03-06T23:38:02.954Z,13.60
2019-03-06T23:40:30.783Z,13.60
2019-03-06T23:42:58.625Z,13.40
2019-03-06T23:45:26.447Z,13.30
2019-03-06T23:47:54.140Z,13.20
2019-03-06T23:50:24.710Z,13.20
2019-03-06T23:53:12.171Z,13.10
2019-03-06T23:55:41.244Z,13.00
2019-03-06T23:58:09.040Z,12.90
